Albany, New York
Traffic Map
Current Weather Conditions
Albany, New York
Overcast
Overcast
24°
Feels Like: 24°
Wind Chill: 24° Ceiling: 25000
Heat Index: 24° Visibility: 10mi
Dew Point: 16° Wind: 15mph
Humidity: 62% Direction: 170° (S)
Pressure: 30.16in Gusts: 0mph
Raw Report DataKALB 012351Z 17013KT 10SM FEW050 FEW120 OVC250 24/16 A3016 RMK AO2 SLP212 T02390161 10289 20239 53006 $
Traffic Incident Summary
Active as of:
Severity:
Category:
InformationThere was an issue retrieving the traffic information for this location. Please try a different location or try again shortly.
Advertisements
Track Severe Weather on mobile